Time;durP1;ratioP1;P1;durP2;ratioP2;P2;SDS_P1;SDS_P2;PMS_P1;PMS_P2;Temp;Humidity;BMP_temperature;BMP_pressure;BME280_temperature;BME280_humidity;BME280_pressure;Samples;Min_cycle;Max_cycle;Signal;HPM_P1;HPM_P2
2021/05/29 00:01:08;;;;;;;13.37;9.97;;;;;;;;;;5098658;28;20499;-71
2021/05/29 00:03:37;;;;;;;14.33;10.97;;;;;;;;;;5115007;28;20502;-71
2021/05/29 00:06:04;;;;;;;13.90;10.37;;;;;;;;;;5119319;27;20473;-71
2021/05/29 00:08:32;;;;;;;11.63;9.70;;;;;;;;;;5116333;27;20852;-70
2021/05/29 00:11:06;;;;;;;12.67;9.23;;;;;;;;;;5117936;27;20618;-70
2021/05/29 00:13:34;;;;;;;11.00;8.63;;;;;;;;;;5115656;27;20947;-71
2021/05/29 00:16:04;;;;;;;13.30;8.80;;;;;;;;;;5109016;27;20498;-71
2021/05/29 00:18:38;;;;;;;18.63;11.83;;;;;;;;;;5097223;28;20521;-72
2021/05/29 00:21:05;;;;;;;16.83;9.47;;;;;;;;;;5112725;27;20482;-71
2021/05/29 00:23:34;;;;;;;12.10;8.70;;;;;;;;;;5110609;27;20467;-70
2021/05/29 00:26:02;;;;;;;15.20;10.83;;;;;;;;;;5098875;28;20852;-71
2021/05/29 00:28:30;;;;;;;18.37;10.40;;;;;;;;;;5098277;28;20459;-71
2021/05/29 00:30:57;;;;;;;17.30;11.40;;;;;;;;;;5098667;27;20914;-70
2021/05/29 00:33:27;;;;;;;15.37;11.97;;;;;;;;;;5101009;28;20883;-70
2021/05/29 00:35:55;;;;;;;15.80;12.90;;;;;;;;;;5097921;28;20965;-70
2021/05/29 00:38:22;;;;;;;14.43;10.93;;;;;;;;;;5097399;28;20464;-70
2021/05/29 00:40:50;;;;;;;16.33;11.57;;;;;;;;;;5104531;28;20535;-71
2021/05/29 00:43:18;;;;;;;20.43;13.23;;;;;;;;;;5105982;28;20455;-71
2021/05/29 00:45:45;;;;;;;20.00;12.17;;;;;;;;;;5097056;28;20495;-71
2021/05/29 00:48:16;;;;;;;15.60;11.60;;;;;;;;;;5116329;27;20502;-72
2021/05/29 00:50:48;;;;;;;14.60;12.17;;;;;;;;;;5118380;27;20535;-71
2021/05/29 00:53:27;;;;;;;;;;;;;;;;;;;;;
2021/05/29 00:55:58;;;;;;;15.63;11.80;;;;;;;;;;5116451;27;20701;-70
2021/05/29 00:58:26;;;;;;;16.50;12.13;;;;;;;;;;5104846;28;20510;-71
2021/05/29 01:00:57;;;;;;;15.57;13.07;;;;;;;;;;5098883;28;20480;-71
2021/05/29 01:03:26;;;;;;;22.07;14.20;;;;;;;;;;5097270;28;20459;-71
2021/05/29 01:05:53;;;;;;;23.70;15.67;;;;;;;;;;5097433;28;20927;-71
2021/05/29 01:08:20;;;;;;;20.40;12.83;;;;;;;;;;5097189;28;20499;-71
2021/05/29 01:10:48;;;;;;;19.17;13.10;;;;;;;;;;5098157;28;20559;-71
2021/05/29 01:13:21;;;;;;;21.37;12.80;;;;;;;;;;5097338;28;20467;-71
2021/05/29 01:15:50;;;;;;;16.50;12.80;;;;;;;;;;5108216;28;20537;-71
2021/05/29 01:18:21;;;;;;;18.33;14.83;;;;;;;;;;5118271;27;20463;-71
2021/05/29 01:20:53;;;;;;;19.40;15.90;;;;;;;;;;5117390;27;20855;-71
2021/05/29 01:23:22;;;;;;;18.83;15.40;;;;;;;;;;5117662;27;20463;-71
2021/05/29 01:25:49;;;;;;;22.20;14.30;;;;;;;;;;5109313;27;20455;-70
2021/05/29 01:28:24;;;;;;;23.77;13.90;;;;;;;;;;5097065;28;20835;-70
2021/05/29 01:30:57;;;;;;;24.10;15.37;;;;;;;;;;5105829;28;20529;-70
2021/05/29 01:33:26;;;;;;;21.90;14.33;;;;;;;;;;5116731;27;20458;-71
2021/05/29 01:36:03;;;;;;;20.47;14.20;;;;;;;;;;5117791;27;20466;-70
2021/05/29 01:38:32;;;;;;;18.97;14.33;;;;;;;;;;5121927;27;20480;-70
2021/05/29 01:41:01;;;;;;;19.63;14.37;;;;;;;;;;5120799;27;20518;-70
2021/05/29 01:43:29;;;;;;;22.60;12.70;;;;;;;;;;5121104;27;20870;-70
2021/05/29 01:45:57;;;;;;;18.50;13.83;;;;;;;;;;5121744;27;20796;-70
2021/05/29 01:48:32;;;;;;;20.93;14.07;;;;;;;;;;5120900;27;20459;-70
2021/05/29 01:51:01;;;;;;;21.77;14.60;;;;;;;;;;5121148;27;20454;-70
2021/05/29 01:53:31;;;;;;;18.80;13.17;;;;;;;;;;5120957;27;20941;-71
2021/05/29 01:56:03;;;;;;;27.70;14.63;;;;;;;;;;5120505;27;20469;-71
2021/05/29 01:58:32;;;;;;;21.43;13.93;;;;;;;;;;5117514;27;20855;-71
2021/05/29 02:00:59;;;;;;;17.07;13.10;;;;;;;;;;5116705;27;20479;-70
2021/05/29 02:03:26;;;;;;;17.23;13.80;;;;;;;;;;5102714;28;20448;-70
2021/05/29 02:05:54;;;;;;;18.87;13.47;;;;;;;;;;5101945;27;20488;-70
2021/05/29 02:08:22;;;;;;;19.50;14.67;;;;;;;;;;5099810;28;20981;-70
2021/05/29 02:10:49;;;;;;;19.83;14.60;;;;;;;;;;5099977;28;20448;-70
2021/05/29 02:13:27;;;;;;;18.67;13.10;;;;;;;;;;5100720;28;20502;-71
2021/05/29 02:15:56;;;;;;;16.40;13.10;;;;;;;;;;5099881;28;20452;-71
2021/05/29 02:18:24;;;;;;;19.67;14.47;;;;;;;;;;5106247;28;20735;-70
2021/05/29 02:20:53;;;;;;;22.63;12.90;;;;;;;;;;5120825;27;20467;-70
2021/05/29 02:23:32;;;;;;;18.33;12.90;;;;;;;;;;5120509;27;20550;-70
2021/05/29 02:26:02;;;;;;;17.63;12.30;;;;;;;;;;5120751;27;20862;-71
2021/05/29 02:28:34;;;;;;;15.27;12.77;;;;;;;;;;5120657;27;20538;-71
2021/05/29 02:33:51;;;;;;;22.73;12.63;;;;;;;;;;5115808;27;20462;-71
2021/05/29 02:36:19;;;;;;;17.67;12.00;;;;;;;;;;5119557;27;20454;-70
2021/05/29 02:38:47;;;;;;;16.00;12.10;;;;;;;;;;5120269;27;20461;-70
2021/05/29 02:41:15;;;;;;;16.97;13.07;;;;;;;;;;5119982;27;20487;-70
2021/05/29 02:43:58;;;;;;;19.70;13.40;;;;;;;;;;5120237;27;20718;-70
2021/05/29 02:46:28;;;;;;;20.87;13.73;;;;;;;;;;5102899;27;20459;-71
2021/05/29 02:48:55;;;;;;;19.83;13.50;;;;;;;;;;5119127;27;20471;-70
2021/05/29 02:51:23;;;;;;;18.83;13.57;;;;;;;;;;5119961;27;20458;-71
2021/05/29 02:53:50;;;;;;;20.40;14.70;;;;;;;;;;5120188;27;20505;-70
2021/05/29 02:56:19;;;;;;;20.53;15.93;;;;;;;;;;5100476;28;20444;-70
2021/05/29 02:58:48;;;;;;;19.60;15.07;;;;;;;;;;5099667;28;20871;-71
2021/05/29 03:01:15;;;;;;;23.60;17.53;;;;;;;;;;5110028;27;20479;-71
2021/05/29 03:03:42;;;;;;;23.10;16.50;;;;;;;;;;5099121;28;20460;-70
2021/05/29 03:06:10;;;;;;;25.07;17.47;;;;;;;;;;5104456;27;20463;-70
2021/05/29 03:08:37;;;;;;;21.17;15.80;;;;;;;;;;5118193;27;20451;-71
2021/05/29 03:11:07;;;;;;;23.37;16.93;;;;;;;;;;5118499;27;20452;-71
2021/05/29 03:13:36;;;;;;;20.00;15.53;;;;;;;;;;5119344;27;20469;-71
2021/05/29 03:16:10;;;;;;;25.10;17.40;;;;;;;;;;5118433;27;20530;-71
2021/05/29 03:18:38;;;;;;;20.67;15.90;;;;;;;;;;5119905;27;20467;-71
2021/05/29 03:21:08;;;;;;;21.80;14.43;;;;;;;;;;5118889;27;20555;-71
2021/05/29 03:23:35;;;;;;;19.03;14.10;;;;;;;;;;5118533;27;20462;-70
2021/05/29 03:26:03;;;;;;;27.03;14.13;;;;;;;;;;5112631;27;20812;-70
2021/05/29 03:28:35;;;;;;;19.30;13.90;;;;;;;;;;5112516;28;20465;-71
2021/05/29 03:31:04;;;;;;;20.00;15.83;;;;;;;;;;5118571;27;20466;-71
2021/05/29 03:33:32;;;;;;;23.53;14.60;;;;;;;;;;5098770;28;20470;-70
2021/05/29 03:35:59;;;;;;;21.20;15.50;;;;;;;;;;5098749;28;20460;-70
2021/05/29 03:38:27;;;;;;;22.83;15.57;;;;;;;;;;5098852;28;20521;-70
2021/05/29 03:40:54;;;;;;;19.20;13.53;;;;;;;;;;5098390;28;20520;-70
2021/05/29 03:43:24;;;;;;;19.70;15.90;;;;;;;;;;5098304;28;20556;-70
2021/05/29 03:45:51;;;;;;;21.13;15.47;;;;;;;;;;5098669;28;20495;-70
2021/05/29 03:48:21;;;;;;;23.03;14.90;;;;;;;;;;5102350;28;20820;-70
2021/05/29 03:50:49;;;;;;;24.00;17.00;;;;;;;;;;5105049;27;20794;-70
2021/05/29 03:53:16;;;;;;;23.63;15.87;;;;;;;;;;5098001;28;20457;-70
2021/05/29 03:55:46;;;;;;;24.60;15.60;;;;;;;;;;5117476;27;20455;-70
2021/05/29 03:58:14;;;;;;;21.60;16.60;;;;;;;;;;5117743;27;20477;-71
2021/05/29 04:00:41;;;;;;;21.33;15.87;;;;;;;;;;5118198;27;20466;-71
2021/05/29 04:03:12;;;;;;;22.60;14.20;;;;;;;;;;5118115;27;20493;-70
2021/05/29 04:05:40;;;;;;;21.87;15.40;;;;;;;;;;5115896;27;20486;-69
2021/05/29 04:08:21;;;;;;;21.90;16.00;;;;;;;;;;5097999;28;20911;-69
2021/05/29 04:10:49;;;;;;;23.17;15.63;;;;;;;;;;5097576;28;20997;-72
2021/05/29 04:13:17;;;;;;;18.97;15.50;;;;;;;;;;5098035;28;20512;-71
2021/05/29 04:15:44;;;;;;;22.13;14.97;;;;;;;;;;5097571;28;20463;-70
2021/05/29 04:18:12;;;;;;;19.70;15.00;;;;;;;;;;5101861;28;20455;-71
2021/05/29 04:20:39;;;;;;;25.50;15.57;;;;;;;;;;5117946;27;20476;-70
2021/05/29 04:23:11;;;;;;;18.77;14.90;;;;;;;;;;5116097;27;20739;-71
2021/05/29 04:25:40;;;;;;;18.33;15.03;;;;;;;;;;5116294;27;20466;-70
2021/05/29 04:28:08;;;;;;;15.73;12.00;;;;;;;;;;5118209;27;20753;-71
2021/05/29 04:30:35;;;;;;;21.80;16.07;;;;;;;;;;5118143;27;20927;-71
2021/05/29 04:33:12;;;;;;;21.63;14.70;;;;;;;;;;5117622;27;20551;-71
2021/05/29 04:35:40;;;;;;;22.67;15.37;;;;;;;;;;5117323;27;20467;-71
2021/05/29 04:38:13;;;;;;;23.13;17.47;;;;;;;;;;5117846;27;20765;-71
2021/05/29 04:40:54;;;;;;;18.87;14.60;;;;;;;;;;5117499;27;20531;-71
2021/05/29 04:43:22;;;;;;;30.27;20.53;;;;;;;;;;5101189;27;20458;-72
2021/05/29 04:45:55;;;;;;;22.53;15.40;;;;;;;;;;5117307;27;20474;-71
2021/05/29 04:48:32;;;;;;;21.40;16.97;;;;;;;;;;5117527;27;20453;-71
2021/05/29 04:51:15;;;;;;;23.00;17.77;;;;;;;;;;5117243;27;20465;-71
2021/05/29 04:53:42;;;;;;;24.37;17.47;;;;;;;;;;5117573;27;20858;-71
2021/05/29 04:56:11;;;;;;;26.37;18.37;;;;;;;;;;5117660;27;20732;-71
2021/05/29 04:58:38;;;;;;;22.10;15.30;;;;;;;;;;5117502;27;20458;-71
2021/05/29 05:01:23;;;;;;;24.50;16.33;;;;;;;;;;5117745;27;20490;-71
2021/05/29 05:04:05;;;;;;;20.67;13.87;;;;;;;;;;5117637;27;20482;-71
2021/05/29 05:06:33;;;;;;;25.00;17.40;;;;;;;;;;5116866;27;20459;-71
2021/05/29 05:09:06;;;;;;;20.40;15.10;;;;;;;;;;5116892;27;20486;-71
2021/05/29 05:14:49;;;;;;;22.60;15.50;;;;;;;;;;5121157;27;20611;-71
2021/05/29 05:17:23;;;;;;;23.53;15.27;;;;;;;;;;5122145;27;20455;-70
2021/05/29 05:19:54;;;;;;;24.20;14.77;;;;;;;;;;5120711;27;20485;-71
2021/05/29 05:22:33;;;;;;;24.10;16.20;;;;;;;;;;5102698;28;20930;-71
2021/05/29 05:25:22;;;;;;;23.60;18.30;;;;;;;;;;5100749;28;20531;-71
2021/05/29 05:27:55;;;;;;;23.17;17.73;;;;;;;;;;5115468;28;20472;-71
2021/05/29 05:30:29;;;;;;;23.80;17.70;;;;;;;;;;5117694;27;20883;-71
2021/05/29 05:32:59;;;;;;;28.27;19.43;;;;;;;;;;5121147;27;20457;-71
2021/05/29 05:35:29;;;;;;;27.00;18.90;;;;;;;;;;5121450;27;20447;-70
2021/05/29 05:37:57;;;;;;;30.70;21.30;;;;;;;;;;5121195;27;20469;-71
2021/05/29 05:40:27;;;;;;;26.60;19.00;;;;;;;;;;5103336;28;20452;-71
2021/05/29 05:42:55;;;;;;;25.50;17.83;;;;;;;;;;5100365;28;20906;-71
2021/05/29 05:45:22;;;;;;;30.27;18.60;;;;;;;;;;5100278;28;20460;-71
2021/05/29 05:47:57;;;;;;;30.03;20.13;;;;;;;;;;5100745;28;20548;-71
2021/05/29 05:50:25;;;;;;;25.47;18.63;;;;;;;;;;5099417;28;21079;-71
2021/05/29 05:52:52;;;;;;;30.70;19.60;;;;;;;;;;5118781;27;20541;-69
2021/05/29 05:55:19;;;;;;;30.57;18.93;;;;;;;;;;5120858;27;20445;-71
2021/05/29 05:57:47;;;;;;;24.00;18.10;;;;;;;;;;5120544;27;20867;-71
2021/05/29 06:00:15;;;;;;;26.73;18.37;;;;;;;;;;5120430;27;20698;-71
2021/05/29 06:02:46;;;;;;;23.80;17.67;;;;;;;;;;5120601;27;20539;-70
2021/05/29 06:05:15;;;;;;;24.93;16.57;;;;;;;;;;5120755;27;20455;-71
2021/05/29 06:07:48;;;;;;;28.03;18.70;;;;;;;;;;5120103;27;20710;-71
2021/05/29 06:10:15;;;;;;;25.33;18.07;;;;;;;;;;5105119;27;20444;-71
2021/05/29 06:12:46;;;;;;;24.23;16.77;;;;;;;;;;5100435;27;20459;-71
2021/05/29 06:18:07;;;;;;;23.73;17.97;;;;;;;;;;5139210;27;21063;-71
2021/05/29 06:20:40;;;;;;;23.10;17.10;;;;;;;;;;5129534;27;20454;-71
2021/05/29 06:23:09;;;;;;;24.60;17.50;;;;;;;;;;5119992;27;20482;-72
2021/05/29 06:25:37;;;;;;;21.03;16.50;;;;;;;;;;5120180;27;20542;-71
2021/05/29 06:28:04;;;;;;;22.00;16.33;;;;;;;;;;5119821;27;20459;-71
2021/05/29 06:30:31;;;;;;;22.10;15.70;;;;;;;;;;5119783;27;20455;-71
2021/05/29 06:32:59;;;;;;;20.60;14.50;;;;;;;;;;5119152;27;20466;-70
2021/05/29 06:35:26;;;;;;;26.13;18.47;;;;;;;;;;5115144;27;20468;-71
2021/05/29 06:37:54;;;;;;;21.30;15.10;;;;;;;;;;5098100;28;20704;-70
2021/05/29 06:40:30;;;;;;;24.77;16.77;;;;;;;;;;5100077;28;20451;-72
2021/05/29 06:42:57;;;;;;;19.80;15.30;;;;;;;;;;5101438;28;20487;-71
2021/05/29 06:45:24;;;;;;;22.33;14.83;;;;;;;;;;5119526;27;20886;-71
2021/05/29 06:47:52;;;;;;;23.00;14.87;;;;;;;;;;5118980;27;20466;-71
2021/05/29 06:50:19;;;;;;;21.90;16.07;;;;;;;;;;5119348;27;20451;-71
2021/05/29 06:52:51;;;;;;;23.30;16.60;;;;;;;;;;5120321;27;20481;-71
2021/05/29 07:00:46;;;;;;;17.33;13.00;;;;;;;;;;5118081;27;20627;-70
2021/05/29 07:03:14;;;;;;;18.07;13.70;;;;;;;;;;5119403;27;20475;-71
2021/05/29 07:05:47;;;;;;;18.20;12.97;;;;;;;;;;5119318;27;20457;-72
2021/05/29 07:08:36;;;;;;;;;;;;;;;;;;;;;
2021/05/29 07:11:14;;;;;;;24.03;13.43;;;;;;;;;;5116415;27;20456;-71
2021/05/29 07:13:56;;;;;;;23.50;12.90;;;;;;;;;;5118638;27;20545;-72
2021/05/29 07:16:51;;;;;;;20.87;13.17;;;;;;;;;;5111979;28;20452;-72
2021/05/29 07:19:36;;;;;;;18.57;14.57;;;;;;;;;;5113934;27;20474;-71
2021/05/29 07:22:28;;;;;;;18.90;13.50;;;;;;;;;;5097875;28;20495;-71
2021/05/29 07:25:04;;;;;;;22.10;15.00;;;;;;;;;;5098449;28;20489;-71
2021/05/29 07:27:35;;;;;;;18.53;13.20;;;;;;;;;;5100471;27;20956;-69
2021/05/29 07:30:35;;;;;;;23.43;15.30;;;;;;;;;;5098649;28;20499;-71
2021/05/29 07:36:01;;;;;;;19.80;15.47;;;;;;;;;;5116368;27;20444;-71
2021/05/29 07:38:39;;;;;;;24.90;14.10;;;;;;;;;;5115970;27;20459;-71
2021/05/29 07:41:28;;;;;;;23.83;16.37;;;;;;;;;;5117883;28;20435;-71
2021/05/29 07:50:06;;;;;;;17.97;13.13;;;;;;;;;;5073404;28;20871;-70
2021/05/29 07:52:49;;;;;;;17.00;12.83;;;;;;;;;;5116982;27;21059;-71
2021/05/29 07:55:39;;;;;;;18.40;13.50;;;;;;;;;;5116950;28;20450;-72
2021/05/29 07:58:08;;;;;;;18.73;12.80;;;;;;;;;;5116931;28;20555;-72
2021/05/29 08:03:34;;;;;;;16.50;10.80;;;;;;;;;;5054428;28;20520;-72
2021/05/29 08:06:21;;;;;;;16.73;11.10;;;;;;;;;;5092309;28;20566;-71
2021/05/29 08:08:55;;;;;;;16.50;11.90;;;;;;;;;;5096554;28;20512;-70
2021/05/29 08:14:48;;;;;;;13.60;9.93;;;;;;;;;;5095914;28;20448;-71
2021/05/29 08:17:32;;;;;;;13.70;10.70;;;;;;;;;;5097812;28;20448;-72
2021/05/29 08:20:07;;;;;;;14.73;9.97;;;;;;;;;;5096570;28;20512;-72
2021/05/29 08:22:45;;;;;;;31.07;11.10;;;;;;;;;;5096867;28;20491;-71
2021/05/29 08:28:45;;;;;;;14.93;11.70;;;;;;;;;;5091833;28;20871;-72
2021/05/29 08:31:42;;;;;;;16.10;13.87;;;;;;;;;;5094761;28;20868;-70
2021/05/29 08:39:57;;;;;;;17.47;13.93;;;;;;;;;;5090650;28;20447;-72
2021/05/29 08:42:27;;;;;;;18.20;13.97;;;;;;;;;;5094929;28;20509;-70
2021/05/29 08:44:58;;;;;;;18.50;14.97;;;;;;;;;;5097572;28;20799;-71
2021/05/29 08:47:26;;;;;;;19.20;14.67;;;;;;;;;;5095414;28;20455;-72
2021/05/29 08:49:55;;;;;;;19.50;14.33;;;;;;;;;;5110824;28;20482;-71
2021/05/29 08:52:23;;;;;;;24.07;15.70;;;;;;;;;;5113484;28;20466;-70
2021/05/29 08:54:54;;;;;;;22.53;15.10;;;;;;;;;;5104512;28;20470;-71
2021/05/29 08:57:22;;;;;;;21.53;16.20;;;;;;;;;;5096598;28;20524;-72
2021/05/29 08:59:51;;;;;;;19.47;14.00;;;;;;;;;;5097847;28;21014;-72
2021/05/29 09:02:24;;;;;;;20.80;15.30;;;;;;;;;;5101370;28;20489;-72
2021/05/29 09:05:08;;;;;;;22.77;14.93;;;;;;;;;;5097184;28;20470;-73
2021/05/29 09:07:37;;;;;;;18.70;13.90;;;;;;;;;;5106665;28;20451;-72
2021/05/29 09:10:18;;;;;;;24.27;16.03;;;;;;;;;;5107523;28;20450;-71
2021/05/29 09:13:01;;;;;;;21.90;15.93;;;;;;;;;;5102507;28;20443;-72
2021/05/29 09:15:47;;;;;;;18.27;15.13;;;;;;;;;;5104681;28;20440;-71
2021/05/29 09:18:25;;;;;;;28.63;17.13;;;;;;;;;;5114369;28;20507;-72
2021/05/29 09:30:30;;;;;;;22.87;16.33;;;;;;;;;;5005822;28;20505;-71
2021/05/29 09:36:10;;;;;;;21.03;14.87;;;;;;;;;;5007605;28;20812;-71
2021/05/29 09:39:05;;;;;;;17.40;13.67;;;;;;;;;;5009899;28;20538;-71
2021/05/29 09:42:03;;;;;;;;;;;;;;;;;;;;;
2021/05/29 09:47:44;;;;;;;12.93;9.63;;;;;;;;;;5028070;28;20427;-71
2021/05/29 09:50:17;;;;;;;15.63;10.77;;;;;;;;;;5014687;28;20474;-72
2021/05/29 09:56:01;;;;;;;13.40;9.80;;;;;;;;;;5072136;28;20730;-71
2021/05/29 10:01:52;;;;;;;14.10;8.93;;;;;;;;;;5095563;28;20489;-72
2021/05/29 10:04:37;;;;;;;10.27;7.40;;;;;;;;;;5098121;28;20439;-72
2021/05/29 10:07:10;;;;;;;12.03;7.80;;;;;;;;;;5103802;28;20452;-71
2021/05/29 10:09:53;;;;;;;9.27;6.30;;;;;;;;;;5098147;28;20480;-71
2021/05/29 10:12:22;;;;;;;7.87;6.00;;;;;;;;;;5098201;28;20488;-72
2021/05/29 10:15:12;;;;;;;11.60;5.67;;;;;;;;;;5097133;28;20447;-72
2021/05/29 10:18:08;;;;;;;16.03;7.47;;;;;;;;;;5099457;28;20455;-70
2021/05/29 10:21:13;;;;;;;;;;;;;;;;;;;;;
2021/05/29 10:27:18;;;;;;;8.37;5.37;;;;;;;;;;5082446;28;20544;-73
2021/05/29 10:30:30;;;;;;;;;;;;;;;;;;;;;
2021/05/29 10:39:31;;;;;;;8.73;5.43;;;;;;;;;;5088745;28;20940;-71
2021/05/29 10:51:22;;;;;;;7.97;4.50;;;;;;;;;;5093525;28;20460;-72
2021/05/29 10:56:44;;;;;;;6.73;4.20;;;;;;;;;;5066299;28;20992;-71
2021/05/29 10:59:15;;;;;;;7.50;5.63;;;;;;;;;;5098840;28;20479;-75
2021/05/29 11:02:03;;;;;;;11.63;7.87;;;;;;;;;;5105661;28;20455;-71
2021/05/29 11:04:31;;;;;;;22.13;18.33;;;;;;;;;;5116766;28;20447;-72
2021/05/29 11:07:01;;;;;;;8.33;5.43;;;;;;;;;;5114784;28;20471;-72
2021/05/29 11:09:52;;;;;;;6.87;5.27;;;;;;;;;;5097638;28;20447;-72
2021/05/29 11:12:40;;;;;;;7.13;4.53;;;;;;;;;;5097462;28;20444;-71
2021/05/29 11:15:11;;;;;;;8.27;5.13;;;;;;;;;;5096464;28;21075;-71
2021/05/29 11:18:02;;;;;;;5.40;4.10;;;;;;;;;;5097677;28;20532;-71
2021/05/29 11:20:29;;;;;;;7.67;5.13;;;;;;;;;;5108566;28;20562;-71
2021/05/29 11:22:57;;;;;;;7.50;4.70;;;;;;;;;;5096702;28;20570;-71
2021/05/29 11:25:26;;;;;;;6.37;4.17;;;;;;;;;;5113154;28;20519;-71
2021/05/29 11:28:01;;;;;;;10.30;5.73;;;;;;;;;;5100341;28;20471;-71
2021/05/29 11:30:33;;;;;;;12.20;6.80;;;;;;;;;;5111571;28;20471;-71
2021/05/29 11:33:11;;;;;;;7.77;5.03;;;;;;;;;;5110997;27;20463;-71
2021/05/29 11:35:45;;;;;;;7.67;6.17;;;;;;;;;;5100811;28;20711;-71
2021/05/29 11:38:15;;;;;;;7.30;6.10;;;;;;;;;;5096803;28;20459;-70
2021/05/29 11:40:46;;;;;;;9.73;6.37;;;;;;;;;;5095148;28;20479;-71
2021/05/29 11:43:14;;;;;;;10.20;6.37;;;;;;;;;;5097165;28;20930;-71
2021/05/29 11:45:51;;;;;;;6.70;5.10;;;;;;;;;;5114346;28;20878;-71
2021/05/29 11:48:18;;;;;;;7.83;5.27;;;;;;;;;;5115434;28;20745;-70
2021/05/29 11:53:36;;;;;;;9.10;6.47;;;;;;;;;;5093830;28;20561;-71
2021/05/29 11:56:05;;;;;;;7.93;5.73;;;;;;;;;;5096536;28;20505;-71
2021/05/29 11:58:48;;;;;;;10.03;7.40;;;;;;;;;;5096886;28;20464;-71
2021/05/29 12:01:18;;;;;;;10.83;8.60;;;;;;;;;;5106403;28;20447;-70
2021/05/29 12:03:50;;;;;;;10.90;8.10;;;;;;;;;;5116150;28;20501;-71
2021/05/29 12:09:32;;;;;;;10.30;9.27;;;;;;;;;;5017858;28;20818;-70
2021/05/29 12:12:02;;;;;;;11.50;9.00;;;;;;;;;;5106111;28;20461;-70
2021/05/29 12:14:33;;;;;;;9.53;8.07;;;;;;;;;;5095763;28;20699;-70
2021/05/29 12:17:03;;;;;;;12.00;10.90;;;;;;;;;;5108591;27;20497;-70
2021/05/29 12:19:34;;;;;;;10.00;7.73;;;;;;;;;;5100778;28;20965;-71
2021/05/29 12:22:03;;;;;;;12.70;8.20;;;;;;;;;;5100478;28;20521;-71
2021/05/29 12:24:41;;;;;;;9.60;6.60;;;;;;;;;;5111220;28;20473;-72
2021/05/29 12:27:14;;;;;;;13.33;7.37;;;;;;;;;;5096787;28;20455;-72
2021/05/29 12:29:42;;;;;;;62.73;45.07;;;;;;;;;;5106218;28;20502;-71
2021/05/29 12:32:29;;;;;;;18.07;14.60;;;;;;;;;;5115983;28;20470;-72
2021/05/29 12:34:58;;;;;;;7.70;6.17;;;;;;;;;;5115894;28;20754;-71
2021/05/29 12:37:30;;;;;;;7.47;6.33;;;;;;;;;;5115679;28;20486;-71
2021/05/29 12:40:02;;;;;;;9.03;7.77;;;;;;;;;;5098990;28;20457;-70
2021/05/29 12:42:36;;;;;;;11.73;7.00;;;;;;;;;;5099738;28;20510;-71
2021/05/29 12:45:08;;;;;;;8.03;6.90;;;;;;;;;;5111943;28;20463;-70
2021/05/29 12:47:38;;;;;;;11.07;7.37;;;;;;;;;;5098928;28;20479;-70
2021/05/29 12:50:17;;;;;;;9.97;7.17;;;;;;;;;;5095791;28;20859;-70
2021/05/29 12:52:45;;;;;;;10.10;8.27;;;;;;;;;;5096361;28;20467;-70
2021/05/29 12:55:20;;;;;;;8.80;7.70;;;;;;;;;;5103943;28;20444;-71
2021/05/29 12:57:49;;;;;;;9.73;8.77;;;;;;;;;;5094746;28;20455;-71
2021/05/29 13:00:37;;;;;;;13.57;9.17;;;;;;;;;;5103188;28;20773;-71
2021/05/29 13:09:07;;;;;;;9.43;8.17;;;;;;;;;;5104035;28;20453;-70
2021/05/29 13:11:35;;;;;;;11.17;9.00;;;;;;;;;;5114479;28;20705;-71
2021/05/29 13:14:03;;;;;;;10.03;8.53;;;;;;;;;;5115845;28;20533;-71
2021/05/29 13:16:53;;;;;;;11.30;9.00;;;;;;;;;;5116253;28;20893;-73
2021/05/29 13:19:35;;;;;;;13.37;8.80;;;;;;;;;;5110423;28;20530;-72
2021/05/29 13:22:04;;;;;;;11.80;9.93;;;;;;;;;;5108572;28;20489;-72
2021/05/29 13:25:00;;;;;;;11.37;8.33;;;;;;;;;;5114066;28;20447;-72
2021/05/29 13:27:43;;;;;;;10.87;8.50;;;;;;;;;;5088149;27;20506;-72
2021/05/29 13:30:14;;;;;;;9.67;8.07;;;;;;;;;;5101311;28;20901;-71
2021/05/29 13:32:50;;;;;;;12.63;8.13;;;;;;;;;;5102232;28;20474;-72
2021/05/29 13:35:25;;;;;;;11.47;8.10;;;;;;;;;;5102722;28;20447;-72
2021/05/29 13:38:11;;;;;;;9.87;8.10;;;;;;;;;;5108240;28;20440;-72
2021/05/29 13:40:55;;;;;;;9.83;7.70;;;;;;;;;;5117975;28;20888;-70
2021/05/29 13:43:29;;;;;;;9.97;8.40;;;;;;;;;;5118638;28;20493;-71
2021/05/29 13:45:56;;;;;;;10.00;7.10;;;;;;;;;;5114648;28;20455;-71
2021/05/29 13:48:31;;;;;;;9.10;6.83;;;;;;;;;;5102352;28;20708;-71
2021/05/29 13:51:02;;;;;;;10.27;8.57;;;;;;;;;;5111924;28;20518;-71
2021/05/29 13:53:32;;;;;;;9.73;7.50;;;;;;;;;;5110423;28;20879;-73
2021/05/29 13:56:04;;;;;;;9.17;7.40;;;;;;;;;;5109441;28;21149;-73
2021/05/29 13:58:43;;;;;;;10.53;7.87;;;;;;;;;;5101653;28;20500;-71
2021/05/29 14:01:13;;;;;;;10.77;9.30;;;;;;;;;;5099536;28;20480;-72
2021/05/29 14:03:41;;;;;;;9.40;7.37;;;;;;;;;;5104181;28;20784;-70
2021/05/29 14:06:15;;;;;;;10.90;8.03;;;;;;;;;;5108082;28;20444;-71
2021/05/29 14:08:44;;;;;;;8.70;7.13;;;;;;;;;;5103091;28;20476;-71
2021/05/29 14:11:27;;;;;;;8.43;7.57;;;;;;;;;;5105179;28;21486;-71
2021/05/29 14:14:04;;;;;;;8.70;7.40;;;;;;;;;;5110544;28;20470;-71
2021/05/29 14:16:41;;;;;;;10.40;6.60;;;;;;;;;;5098321;28;20435;-72
2021/05/29 14:19:09;;;;;;;9.87;6.93;;;;;;;;;;5097988;28;21063;-72
2021/05/29 14:22:04;;;;;;;9.03;6.27;;;;;;;;;;5095776;28;20448;-72
2021/05/29 14:24:36;;;;;;;9.10;7.70;;;;;;;;;;5096756;28;20538;-72
2021/05/29 14:27:07;;;;;;;7.30;6.50;;;;;;;;;;5097148;28;20463;-72
2021/05/29 14:29:39;;;;;;;7.93;6.90;;;;;;;;;;5098342;28;20444;-72
2021/05/29 14:32:16;;;;;;;7.80;6.40;;;;;;;;;;5096982;28;20447;-73
2021/05/29 14:34:52;;;;;;;7.47;6.70;;;;;;;;;;5096828;28;20462;-72
2021/05/29 14:37:27;;;;;;;9.13;7.47;;;;;;;;;;5098088;28;21021;-71
2021/05/29 14:39:59;;;;;;;7.80;6.67;;;;;;;;;;5097957;28;20526;-72
2021/05/29 14:42:33;;;;;;;8.67;6.50;;;;;;;;;;5097266;28;20507;-73
2021/05/29 14:45:12;;;;;;;8.80;5.90;;;;;;;;;;5097334;28;20466;-72
2021/05/29 14:48:02;;;;;;;11.30;9.57;;;;;;;;;;5097847;28;20530;-73
2021/05/29 14:51:15;;;;;;;9.27;6.70;;;;;;;;;;5096846;28;20537;-72
2021/05/29 14:53:31;;;;;;;8.43;6.93;;;;;;;;;;5106086;28;20504;-72
2021/05/29 14:56:01;;;;;;;10.10;6.57;;;;;;;;;;5117593;28;20460;-72
2021/05/29 14:58:31;;;;;;;8.57;6.20;;;;;;;;;;5102527;28;20991;-71
2021/05/29 15:01:19;;;;;;;7.50;6.23;;;;;;;;;;5114366;27;20803;-72
2021/05/29 15:03:52;;;;;;;9.13;7.40;;;;;;;;;;5111125;28;20491;-72
2021/05/29 15:06:35;;;;;;;9.40;7.47;;;;;;;;;;5112743;28;20442;-73
2021/05/29 15:09:05;;;;;;;9.10;7.23;;;;;;;;;;5119000;27;20461;-71
2021/05/29 15:11:34;;;;;;;9.70;6.70;;;;;;;;;;5138396;27;20830;-72
2021/05/29 15:14:07;;;;;;;9.00;7.70;;;;;;;;;;5139070;27;20457;-72
2021/05/29 15:16:39;;;;;;;8.40;7.00;;;;;;;;;;5138008;27;20454;-73
2021/05/29 15:19:06;;;;;;;7.97;7.10;;;;;;;;;;5098184;28;20509;-72
2021/05/29 15:21:34;;;;;;;8.93;6.43;;;;;;;;;;5114258;28;20451;-70
2021/05/29 15:24:05;;;;;;;8.87;6.77;;;;;;;;;;5106261;28;20479;-73
2021/05/29 15:26:49;;;;;;;11.47;7.40;;;;;;;;;;5108890;28;20439;-73
2021/05/29 15:29:29;;;;;;;8.40;7.20;;;;;;;;;;5116287;28;20453;-72
2021/05/29 15:31:59;;;;;;;9.50;6.97;;;;;;;;;;5117724;28;20486;-72
2021/05/29 15:34:48;;;;;;;8.83;7.27;;;;;;;;;;5117363;28;20443;-72
2021/05/29 15:37:15;;;;;;;10.70;7.17;;;;;;;;;;5117453;28;20451;-72
2021/05/29 15:39:43;;;;;;;11.67;7.47;;;;;;;;;;5105735;28;20530;-72
2021/05/29 15:42:13;;;;;;;19.03;15.93;;;;;;;;;;5117542;28;20537;-72
2021/05/29 15:44:41;;;;;;;10.53;7.73;;;;;;;;;;5125134;27;20726;-72
2021/05/29 15:47:08;;;;;;;7.90;6.80;;;;;;;;;;5115890;27;20470;-72
2021/05/29 15:49:38;;;;;;;13.20;8.00;;;;;;;;;;5078101;28;20452;-71
2021/05/29 15:52:05;;;;;;;7.53;6.47;;;;;;;;;;5096307;28;20452;-71
2021/05/29 15:54:36;;;;;;;9.77;7.60;;;;;;;;;;5097104;28;20458;-72
2021/05/29 15:57:05;;;;;;;9.07;6.27;;;;;;;;;;5096183;28;20460;-70
2021/05/29 15:59:33;;;;;;;7.83;6.00;;;;;;;;;;5112795;28;20435;-70
2021/05/29 16:02:09;;;;;;;10.20;6.70;;;;;;;;;;5117035;28;20455;-71
2021/05/29 16:04:36;;;;;;;8.73;7.10;;;;;;;;;;5109553;28;20867;-72
2021/05/29 16:07:08;;;;;;;9.43;7.73;;;;;;;;;;5108563;28;20468;-72
2021/05/29 16:09:39;;;;;;;8.73;6.53;;;;;;;;;;5114282;28;20457;-72
2021/05/29 16:12:11;;;;;;;6.90;6.20;;;;;;;;;;5098994;28;20450;-73
2021/05/29 16:14:43;;;;;;;6.23;5.63;;;;;;;;;;5096641;28;20456;-72
2021/05/29 16:17:15;;;;;;;8.70;5.40;;;;;;;;;;5111526;28;20490;-72
2021/05/29 16:19:45;;;;;;;7.00;5.63;;;;;;;;;;5104692;28;20440;-72
2021/05/29 16:22:24;;;;;;;8.13;6.07;;;;;;;;;;5102335;28;20480;-72
2021/05/29 16:24:53;;;;;;;6.40;5.43;;;;;;;;;;5110339;28;20504;-73
2021/05/29 16:27:25;;;;;;;8.60;6.20;;;;;;;;;;5096186;28;20456;-72
2021/05/29 16:32:57;;;;;;;7.50;6.07;;;;;;;;;;5111310;28;20467;-73
2021/05/29 16:35:42;;;;;;;7.40;5.50;;;;;;;;;;5110400;28;20446;-74
2021/05/29 16:38:25;;;;;;;7.00;5.77;;;;;;;;;;5117307;28;20438;-72
2021/05/29 16:40:53;;;;;;;8.73;6.03;;;;;;;;;;5110533;28;20432;-71
2021/05/29 16:43:20;;;;;;;8.80;6.17;;;;;;;;;;5095366;28;20479;-71